sensor_id;sensor_type;location;lat;lon;timestamp;P1;durP1;ratioP1;P2;durP2;ratioP2
22144;SDS011;11238;48.730;11.566;2023-11-22T00:00:47;2.42;;;1.95;;
22144;SDS011;11238;48.730;11.566;2023-11-22T00:03:14;3.25;;;2.13;;
22144;SDS011;11238;48.730;11.566;2023-11-22T00:05:40;2.63;;;2.28;;
22144;SDS011;11238;48.730;11.566;2023-11-22T00:08:06;2.30;;;2.10;;
22144;SDS011;11238;48.730;11.566;2023-11-22T00:10:33;2.88;;;2.50;;
22144;SDS011;11238;48.730;11.566;2023-11-22T00:12:59;4.72;;;2.45;;
22144;SDS011;11238;48.730;11.566;2023-11-22T00:15:25;2.90;;;2.40;;
22144;SDS011;11238;48.730;11.566;2023-11-22T00:17:52;3.20;;;2.70;;
22144;SDS011;11238;48.730;11.566;2023-11-22T00:20:18;3.05;;;2.50;;
22144;SDS011;11238;48.730;11.566;2023-11-22T00:22:46;3.45;;;2.60;;
22144;SDS011;11238;48.730;11.566;2023-11-22T00:25:12;3.80;;;2.50;;
22144;SDS011;11238;48.730;11.566;2023-11-22T00:27:41;3.08;;;2.38;;
22144;SDS011;11238;48.730;11.566;2023-11-22T00:30:07;5.43;;;2.67;;
22144;SDS011;11238;48.730;11.566;2023-11-22T00:32:35;3.17;;;2.70;;
22144;SDS011;11238;48.730;11.566;2023-11-22T00:35:00;3.45;;;2.47;;
22144;SDS011;11238;48.730;11.566;2023-11-22T00:37:27;3.28;;;2.88;;
22144;SDS011;11238;48.730;11.566;2023-11-22T00:39:52;5.00;;;2.70;;
22144;SDS011;11238;48.730;11.566;2023-11-22T00:42:18;4.15;;;2.90;;
22144;SDS011;11238;48.730;11.566;2023-11-22T00:44:46;4.28;;;2.60;;
22144;SDS011;11238;48.730;11.566;2023-11-22T00:47:12;4.32;;;3.00;;
22144;SDS011;11238;48.730;11.566;2023-11-22T00:49:38;4.18;;;2.88;;
22144;SDS011;11238;48.730;11.566;2023-11-22T00:52:05;4.10;;;3.10;;
22144;SDS011;11238;48.730;11.566;2023-11-22T00:54:32;4.30;;;3.33;;
22144;SDS011;11238;48.730;11.566;2023-11-22T00:56:58;4.25;;;3.20;;
22144;SDS011;11238;48.730;11.566;2023-11-22T00:59:24;4.57;;;3.13;;
22144;SDS011;11238;48.730;11.566;2023-11-22T01:01:50;4.60;;;3.30;;
22144;SDS011;11238;48.730;11.566;2023-11-22T01:04:16;4.40;;;3.40;;
22144;SDS011;11238;48.730;11.566;2023-11-22T01:06:42;4.53;;;3.58;;
22144;SDS011;11238;48.730;11.566;2023-11-22T01:09:08;6.28;;;3.80;;
22144;SDS011;11238;48.730;11.566;2023-11-22T01:11:34;6.18;;;4.07;;
22144;SDS011;11238;48.730;11.566;2023-11-22T01:14:01;6.40;;;3.92;;
22144;SDS011;11238;48.730;11.566;2023-11-22T01:16:27;5.13;;;3.60;;
22144;SDS011;11238;48.730;11.566;2023-11-22T01:18:53;4.80;;;3.40;;
22144;SDS011;11238;48.730;11.566;2023-11-22T01:21:20;7.18;;;3.70;;
22144;SDS011;11238;48.730;11.566;2023-11-22T01:23:46;6.65;;;3.97;;
22144;SDS011;11238;48.730;11.566;2023-11-22T01:26:12;4.88;;;3.65;;
22144;SDS011;11238;48.730;11.566;2023-11-22T01:28:38;5.93;;;3.78;;
22144;SDS011;11238;48.730;11.566;2023-11-22T01:31:10;5.07;;;3.70;;
22144;SDS011;11238;48.730;11.566;2023-11-22T01:33:38;8.52;;;4.03;;
22144;SDS011;11238;48.730;11.566;2023-11-22T01:36:04;6.10;;;4.13;;
22144;SDS011;11238;48.730;11.566;2023-11-22T01:38:30;5.88;;;4.00;;
22144;SDS011;11238;48.730;11.566;2023-11-22T01:40:56;7.72;;;4.28;;
22144;SDS011;11238;48.730;11.566;2023-11-22T01:43:23;8.88;;;4.30;;
22144;SDS011;11238;48.730;11.566;2023-11-22T01:45:53;5.82;;;3.83;;
22144;SDS011;11238;48.730;11.566;2023-11-22T01:48:20;7.88;;;3.80;;
22144;SDS011;11238;48.730;11.566;2023-11-22T01:50:46;5.32;;;3.45;;
22144;SDS011;11238;48.730;11.566;2023-11-22T01:53:13;5.65;;;3.72;;
22144;SDS011;11238;48.730;11.566;2023-11-22T01:55:42;6.40;;;3.70;;
22144;SDS011;11238;48.730;11.566;2023-11-22T01:58:09;5.78;;;3.45;;
22144;SDS011;11238;48.730;11.566;2023-11-22T02:00:48;4.85;;;3.55;;
22144;SDS011;11238;48.730;11.566;2023-11-22T02:03:15;5.72;;;3.95;;
22144;SDS011;11238;48.730;11.566;2023-11-22T02:05:41;5.03;;;3.47;;
22144;SDS011;11238;48.730;11.566;2023-11-22T02:08:11;6.05;;;4.03;;
22144;SDS011;11238;48.730;11.566;2023-11-22T02:10:38;4.28;;;3.40;;
22144;SDS011;11238;48.730;11.566;2023-11-22T02:13:05;5.53;;;3.70;;
22144;SDS011;11238;48.730;11.566;2023-11-22T02:15:36;4.93;;;3.50;;
22144;SDS011;11238;48.730;11.566;2023-11-22T02:18:03;4.47;;;3.30;;
22144;SDS011;11238;48.730;11.566;2023-11-22T02:20:31;5.63;;;3.75;;
22144;SDS011;11238;48.730;11.566;2023-11-22T02:22:57;5.15;;;3.47;;
22144;SDS011;11238;48.730;11.566;2023-11-22T02:25:26;4.22;;;3.40;;
22144;SDS011;11238;48.730;11.566;2023-11-22T02:27:52;4.35;;;3.40;;
22144;SDS011;11238;48.730;11.566;2023-11-22T02:30:18;4.65;;;3.65;;
22144;SDS011;11238;48.730;11.566;2023-11-22T02:32:43;5.50;;;3.55;;
22144;SDS011;11238;48.730;11.566;2023-11-22T02:35:12;5.30;;;3.72;;
22144;SDS011;11238;48.730;11.566;2023-11-22T02:37:38;5.40;;;3.40;;
22144;SDS011;11238;48.730;11.566;2023-11-22T02:42:47;5.20;;;3.13;;
22144;SDS011;11238;48.730;11.566;2023-11-22T02:45:17;4.30;;;3.03;;
22144;SDS011;11238;48.730;11.566;2023-11-22T02:47:54;3.95;;;2.90;;
22144;SDS011;11238;48.730;11.566;2023-11-22T02:50:20;3.90;;;2.88;;
22144;SDS011;11238;48.730;11.566;2023-11-22T02:52:46;4.88;;;3.30;;
22144;SDS011;11238;48.730;11.566;2023-11-22T02:55:12;3.88;;;3.08;;
22144;SDS011;11238;48.730;11.566;2023-11-22T02:57:38;3.13;;;2.63;;
22144;SDS011;11238;48.730;11.566;2023-11-22T03:00:08;3.35;;;2.70;;
22144;SDS011;11238;48.730;11.566;2023-11-22T03:02:39;3.97;;;2.85;;
22144;SDS011;11238;48.730;11.566;2023-11-22T03:05:09;4.20;;;3.03;;
22144;SDS011;11238;48.730;11.566;2023-11-22T03:07:36;4.72;;;3.30;;
22144;SDS011;11238;48.730;11.566;2023-11-22T03:10:03;3.55;;;2.72;;
22144;SDS011;11238;48.730;11.566;2023-11-22T03:12:30;4.25;;;3.05;;
22144;SDS011;11238;48.730;11.566;2023-11-22T03:14:56;4.95;;;2.92;;
22144;SDS011;11238;48.730;11.566;2023-11-22T03:17:26;3.85;;;2.85;;
22144;SDS011;11238;48.730;11.566;2023-11-22T03:19:54;3.28;;;2.85;;
22144;SDS011;11238;48.730;11.566;2023-11-22T03:22:25;4.32;;;2.80;;
22144;SDS011;11238;48.730;11.566;2023-11-22T03:24:52;2.92;;;2.47;;
22144;SDS011;11238;48.730;11.566;2023-11-22T03:27:19;3.58;;;2.78;;
22144;SDS011;11238;48.730;11.566;2023-11-22T03:29:47;3.35;;;2.53;;
22144;SDS011;11238;48.730;11.566;2023-11-22T03:32:13;2.75;;;2.45;;
22144;SDS011;11238;48.730;11.566;2023-11-22T03:34:39;3.13;;;2.50;;
22144;SDS011;11238;48.730;11.566;2023-11-22T03:37:04;2.78;;;2.20;;
22144;SDS011;11238;48.730;11.566;2023-11-22T03:39:30;2.75;;;2.05;;
22144;SDS011;11238;48.730;11.566;2023-11-22T03:41:56;2.55;;;2.10;;
22144;SDS011;11238;48.730;11.566;2023-11-22T03:44:22;3.35;;;2.20;;
22144;SDS011;11238;48.730;11.566;2023-11-22T03:46:48;2.30;;;2.10;;
22144;SDS011;11238;48.730;11.566;2023-11-22T03:49:14;2.50;;;2.25;;
22144;SDS011;11238;48.730;11.566;2023-11-22T03:51:41;2.70;;;2.20;;
22144;SDS011;11238;48.730;11.566;2023-11-22T03:54:08;2.90;;;2.22;;
22144;SDS011;11238;48.730;11.566;2023-11-22T03:56:36;3.65;;;2.33;;
22144;SDS011;11238;48.730;11.566;2023-11-22T03:59:02;2.67;;;2.22;;
22144;SDS011;11238;48.730;11.566;2023-11-22T04:01:29;3.28;;;2.30;;
22144;SDS011;11238;48.730;11.566;2023-11-22T04:03:55;4.05;;;2.50;;
22144;SDS011;11238;48.730;11.566;2023-11-22T04:06:21;2.40;;;2.20;;
22144;SDS011;11238;48.730;11.566;2023-11-22T04:08:48;3.67;;;2.42;;
22144;SDS011;11238;48.730;11.566;2023-11-22T04:11:15;2.85;;;2.45;;
22144;SDS011;11238;48.730;11.566;2023-11-22T04:13:42;2.30;;;2.00;;
22144;SDS011;11238;48.730;11.566;2023-11-22T04:16:09;3.72;;;2.13;;
22144;SDS011;11238;48.730;11.566;2023-11-22T04:18:37;2.58;;;2.13;;
22144;SDS011;11238;48.730;11.566;2023-11-22T04:21:05;2.40;;;2.20;;
22144;SDS011;11238;48.730;11.566;2023-11-22T04:23:31;3.00;;;2.50;;
22144;SDS011;11238;48.730;11.566;2023-11-22T04:26:01;3.00;;;2.38;;
22144;SDS011;11238;48.730;11.566;2023-11-22T04:28:28;3.10;;;2.30;;
22144;SDS011;11238;48.730;11.566;2023-11-22T04:30:57;3.10;;;2.47;;
22144;SDS011;11238;48.730;11.566;2023-11-22T04:33:23;3.08;;;2.53;;
22144;SDS011;11238;48.730;11.566;2023-11-22T04:35:49;2.88;;;2.45;;
22144;SDS011;11238;48.730;11.566;2023-11-22T04:38:15;3.85;;;2.60;;
22144;SDS011;11238;48.730;11.566;2023-11-22T04:40:41;2.75;;;2.40;;
22144;SDS011;11238;48.730;11.566;2023-11-22T04:43:09;2.70;;;2.30;;
22144;SDS011;11238;48.730;11.566;2023-11-22T04:45:35;2.50;;;2.30;;
22144;SDS011;11238;48.730;11.566;2023-11-22T04:48:02;2.55;;;2.35;;
22144;SDS011;11238;48.730;11.566;2023-11-22T04:50:29;2.63;;;2.35;;
22144;SDS011;11238;48.730;11.566;2023-11-22T04:52:55;2.80;;;2.53;;
22144;SDS011;11238;48.730;11.566;2023-11-22T04:55:21;2.78;;;2.40;;
22144;SDS011;11238;48.730;11.566;2023-11-22T04:57:50;5.50;;;2.60;;
22144;SDS011;11238;48.730;11.566;2023-11-22T05:00:17;3.00;;;2.70;;
22144;SDS011;11238;48.730;11.566;2023-11-22T05:02:43;3.42;;;2.63;;
22144;SDS011;11238;48.730;11.566;2023-11-22T05:05:09;3.92;;;2.90;;
22144;SDS011;11238;48.730;11.566;2023-11-22T05:07:37;4.32;;;2.97;;
22144;SDS011;11238;48.730;11.566;2023-11-22T05:10:04;3.20;;;2.88;;
22144;SDS011;11238;48.730;11.566;2023-11-22T05:12:31;5.18;;;3.50;;
22144;SDS011;11238;48.730;11.566;2023-11-22T05:14:57;4.75;;;3.38;;
22144;SDS011;11238;48.730;11.566;2023-11-22T05:17:23;4.72;;;3.55;;
22144;SDS011;11238;48.730;11.566;2023-11-22T05:19:49;5.43;;;3.65;;
22144;SDS011;11238;48.730;11.566;2023-11-22T05:22:16;5.05;;;3.33;;
22144;SDS011;11238;48.730;11.566;2023-11-22T05:24:42;5.43;;;3.10;;
22144;SDS011;11238;48.730;11.566;2023-11-22T05:27:08;5.47;;;3.63;;
22144;SDS011;11238;48.730;11.566;2023-11-22T05:29:34;4.85;;;3.35;;
22144;SDS011;11238;48.730;11.566;2023-11-22T05:32:01;3.58;;;2.75;;
22144;SDS011;11238;48.730;11.566;2023-11-22T05:34:28;3.75;;;2.67;;
22144;SDS011;11238;48.730;11.566;2023-11-22T05:36:54;4.38;;;2.58;;
22144;SDS011;11238;48.730;11.566;2023-11-22T05:39:21;2.90;;;2.30;;
22144;SDS011;11238;48.730;11.566;2023-11-22T05:41:50;3.00;;;2.70;;
22144;SDS011;11238;48.730;11.566;2023-11-22T05:44:17;3.33;;;2.58;;
22144;SDS011;11238;48.730;11.566;2023-11-22T05:46:43;3.15;;;2.50;;
22144;SDS011;11238;48.730;11.566;2023-11-22T05:49:09;2.92;;;2.40;;
22144;SDS011;11238;48.730;11.566;2023-11-22T05:51:36;4.10;;;2.75;;
22144;SDS011;11238;48.730;11.566;2023-11-22T05:54:02;3.08;;;2.42;;
22144;SDS011;11238;48.730;11.566;2023-11-22T05:56:29;3.60;;;2.63;;
22144;SDS011;11238;48.730;11.566;2023-11-22T05:58:55;4.55;;;2.53;;
22144;SDS011;11238;48.730;11.566;2023-11-22T06:01:22;3.35;;;2.45;;
22144;SDS011;11238;48.730;11.566;2023-11-22T06:03:48;3.90;;;2.80;;
22144;SDS011;11238;48.730;11.566;2023-11-22T06:06:14;2.53;;;2.30;;
22144;SDS011;11238;48.730;11.566;2023-11-22T06:08:40;2.90;;;2.47;;
22144;SDS011;11238;48.730;11.566;2023-11-22T06:11:06;2.90;;;2.50;;
22144;SDS011;11238;48.730;11.566;2023-11-22T06:13:33;3.03;;;2.22;;
22144;SDS011;11238;48.730;11.566;2023-11-22T06:15:58;6.13;;;2.22;;
22144;SDS011;11238;48.730;11.566;2023-11-22T06:18:24;2.75;;;2.38;;
22144;SDS011;11238;48.730;11.566;2023-11-22T06:20:55;3.55;;;2.38;;
22144;SDS011;11238;48.730;11.566;2023-11-22T06:23:23;3.08;;;2.40;;
22144;SDS011;11238;48.730;11.566;2023-11-22T06:25:49;3.08;;;2.60;;
22144;SDS011;11238;48.730;11.566;2023-11-22T06:28:15;3.75;;;2.40;;
22144;SDS011;11238;48.730;11.566;2023-11-22T06:30:42;3.38;;;2.30;;
22144;SDS011;11238;48.730;11.566;2023-11-22T06:33:07;2.65;;;2.15;;
22144;SDS011;11238;48.730;11.566;2023-11-22T06:35:34;2.95;;;2.30;;
22144;SDS011;11238;48.730;11.566;2023-11-22T06:38:00;3.65;;;2.67;;
22144;SDS011;11238;48.730;11.566;2023-11-22T06:40:25;2.80;;;2.50;;
22144;SDS011;11238;48.730;11.566;2023-11-22T06:42:51;3.08;;;2.60;;
22144;SDS011;11238;48.730;11.566;2023-11-22T06:45:17;8.02;;;2.75;;
22144;SDS011;11238;48.730;11.566;2023-11-22T06:47:44;3.75;;;2.72;;
22144;SDS011;11238;48.730;11.566;2023-11-22T06:50:10;4.55;;;2.92;;
22144;SDS011;11238;48.730;11.566;2023-11-22T06:52:36;3.17;;;2.38;;
22144;SDS011;11238;48.730;11.566;2023-11-22T06:55:07;3.15;;;2.60;;
22144;SDS011;11238;48.730;11.566;2023-11-22T06:57:33;3.20;;;2.58;;
22144;SDS011;11238;48.730;11.566;2023-11-22T07:00:01;3.78;;;2.80;;
22144;SDS011;11238;48.730;11.566;2023-11-22T07:02:52;3.17;;;2.38;;
22144;SDS011;11238;48.730;11.566;2023-11-22T07:05:18;3.40;;;2.53;;
22144;SDS011;11238;48.730;11.566;2023-11-22T07:07:44;3.20;;;2.53;;
22144;SDS011;11238;48.730;11.566;2023-11-22T07:10:10;3.17;;;2.47;;
22144;SDS011;11238;48.730;11.566;2023-11-22T07:12:36;3.00;;;2.70;;
22144;SDS011;11238;48.730;11.566;2023-11-22T07:15:03;4.32;;;2.90;;
22144;SDS011;11238;48.730;11.566;2023-11-22T07:17:30;3.15;;;2.85;;
22144;SDS011;11238;48.730;11.566;2023-11-22T07:19:58;5.10;;;2.40;;
22144;SDS011;11238;48.730;11.566;2023-11-22T07:22:25;3.70;;;2.75;;
22144;SDS011;11238;48.730;11.566;2023-11-22T07:24:52;2.92;;;2.30;;
22144;SDS011;11238;48.730;11.566;2023-11-22T07:27:20;4.57;;;3.10;;
22144;SDS011;11238;48.730;11.566;2023-11-22T07:29:46;6.45;;;3.17;;
22144;SDS011;11238;48.730;11.566;2023-11-22T07:32:12;4.30;;;2.92;;
22144;SDS011;11238;48.730;11.566;2023-11-22T07:34:39;2.97;;;2.60;;
22144;SDS011;11238;48.730;11.566;2023-11-22T07:37:06;5.30;;;3.00;;
22144;SDS011;11238;48.730;11.566;2023-11-22T07:39:33;4.80;;;2.88;;
22144;SDS011;11238;48.730;11.566;2023-11-22T07:42:01;3.67;;;2.95;;
22144;SDS011;11238;48.730;11.566;2023-11-22T07:44:27;4.10;;;3.00;;
22144;SDS011;11238;48.730;11.566;2023-11-22T07:46:53;4.72;;;3.15;;
22144;SDS011;11238;48.730;11.566;2023-11-22T07:49:20;4.80;;;3.47;;
22144;SDS011;11238;48.730;11.566;2023-11-22T07:51:49;3.70;;;3.10;;
22144;SDS011;11238;48.730;11.566;2023-11-22T07:54:21;4.13;;;3.30;;
22144;SDS011;11238;48.730;11.566;2023-11-22T07:56:49;4.13;;;2.75;;
22144;SDS011;11238;48.730;11.566;2023-11-22T07:59:16;4.00;;;3.30;;
22144;SDS011;11238;48.730;11.566;2023-11-22T08:01:42;5.82;;;3.22;;
22144;SDS011;11238;48.730;11.566;2023-11-22T08:04:13;5.47;;;3.35;;
22144;SDS011;11238;48.730;11.566;2023-11-22T08:06:39;4.07;;;3.30;;
22144;SDS011;11238;48.730;11.566;2023-11-22T08:09:05;4.93;;;3.50;;
22144;SDS011;11238;48.730;11.566;2023-11-22T08:11:33;3.95;;;3.20;;
22144;SDS011;11238;48.730;11.566;2023-11-22T08:14:00;5.85;;;3.30;;
22144;SDS011;11238;48.730;11.566;2023-11-22T08:16:26;5.60;;;3.20;;
22144;SDS011;11238;48.730;11.566;2023-11-22T08:18:52;4.40;;;3.33;;
22144;SDS011;11238;48.730;11.566;2023-11-22T08:21:18;4.43;;;3.28;;
22144;SDS011;11238;48.730;11.566;2023-11-22T08:23:45;5.07;;;3.33;;
22144;SDS011;11238;48.730;11.566;2023-11-22T08:26:12;4.32;;;3.38;;
22144;SDS011;11238;48.730;11.566;2023-11-22T08:28:39;3.72;;;3.00;;
22144;SDS011;11238;48.730;11.566;2023-11-22T08:31:06;3.95;;;3.25;;
22144;SDS011;11238;48.730;11.566;2023-11-22T08:33:38;5.05;;;3.60;;
22144;SDS011;11238;48.730;11.566;2023-11-22T08:36:05;4.03;;;3.17;;
22144;SDS011;11238;48.730;11.566;2023-11-22T08:38:33;3.85;;;3.15;;
22144;SDS011;11238;48.730;11.566;2023-11-22T08:41:03;4.20;;;3.20;;
22144;SDS011;11238;48.730;11.566;2023-11-22T08:43:31;4.72;;;3.20;;
22144;SDS011;11238;48.730;11.566;2023-11-22T08:46:00;4.00;;;3.22;;
22144;SDS011;11238;48.730;11.566;2023-11-22T08:48:30;4.53;;;3.38;;
22144;SDS011;11238;48.730;11.566;2023-11-22T08:50:56;5.35;;;3.45;;
22144;SDS011;11238;48.730;11.566;2023-11-22T08:53:25;4.10;;;3.25;;
22144;SDS011;11238;48.730;11.566;2023-11-22T08:55:51;4.03;;;3.40;;
22144;SDS011;11238;48.730;11.566;2023-11-22T08:58:19;4.38;;;3.28;;
22144;SDS011;11238;48.730;11.566;2023-11-22T09:00:47;3.67;;;2.97;;
22144;SDS011;11238;48.730;11.566;2023-11-22T09:03:13;5.00;;;3.72;;
22144;SDS011;11238;48.730;11.566;2023-11-22T09:05:42;3.78;;;3.28;;
22144;SDS011;11238;48.730;11.566;2023-11-22T09:08:09;5.32;;;3.38;;
22144;SDS011;11238;48.730;11.566;2023-11-22T09:10:39;4.60;;;3.38;;
22144;SDS011;11238;48.730;11.566;2023-11-22T09:13:06;7.55;;;3.83;;
22144;SDS011;11238;48.730;11.566;2023-11-22T09:15:31;4.80;;;3.50;;
22144;SDS011;11238;48.730;11.566;2023-11-22T09:17:59;5.60;;;3.72;;
22144;SDS011;11238;48.730;11.566;2023-11-22T09:20:25;5.72;;;3.90;;
22144;SDS011;11238;48.730;11.566;2023-11-22T09:22:52;5.90;;;3.60;;
22144;SDS011;11238;48.730;11.566;2023-11-22T09:25:21;9.18;;;3.22;;
22144;SDS011;11238;48.730;11.566;2023-11-22T09:27:51;4.90;;;3.72;;
22144;SDS011;11238;48.730;11.566;2023-11-22T09:30:21;5.35;;;3.45;;
22144;SDS011;11238;48.730;11.566;2023-11-22T09:33:11;4.05;;;3.53;;
22144;SDS011;11238;48.730;11.566;2023-11-22T09:35:42;4.93;;;3.55;;
22144;SDS011;11238;48.730;11.566;2023-11-22T09:38:34;4.30;;;3.40;;
22144;SDS011;11238;48.730;11.566;2023-11-22T09:41:00;4.25;;;3.45;;
22144;SDS011;11238;48.730;11.566;2023-11-22T09:43:28;5.30;;;3.58;;
22144;SDS011;11238;48.730;11.566;2023-11-22T09:45:54;4.93;;;3.67;;
22144;SDS011;11238;48.730;11.566;2023-11-22T09:48:21;5.03;;;3.50;;
22144;SDS011;11238;48.730;11.566;2023-11-22T09:54:08;4.70;;;3.42;;
22144;SDS011;11238;48.730;11.566;2023-11-22T09:56:14;4.90;;;3.13;;
22144;SDS011;11238;48.730;11.566;2023-11-22T09:58:43;4.97;;;3.35;;
22144;SDS011;11238;48.730;11.566;2023-11-22T10:01:10;3.95;;;3.20;;
22144;SDS011;11238;48.730;11.566;2023-11-22T10:03:39;6.53;;;3.58;;
22144;SDS011;11238;48.730;11.566;2023-11-22T10:06:05;5.05;;;3.70;;
22144;SDS011;11238;48.730;11.566;2023-11-22T10:08:32;5.32;;;3.85;;
22144;SDS011;11238;48.730;11.566;2023-11-22T10:10:58;5.63;;;3.70;;
22144;SDS011;11238;48.730;11.566;2023-11-22T10:13:25;4.65;;;3.38;;
22144;SDS011;11238;48.730;11.566;2023-11-22T10:15:52;4.40;;;3.15;;
22144;SDS011;11238;48.730;11.566;2023-11-22T10:18:18;5.32;;;3.85;;
22144;SDS011;11238;48.730;11.566;2023-11-22T10:20:47;5.57;;;3.35;;
22144;SDS011;11238;48.730;11.566;2023-11-22T10:23:15;4.95;;;3.70;;
22144;SDS011;11238;48.730;11.566;2023-11-22T10:25:46;6.97;;;4.78;;
22144;SDS011;11238;48.730;11.566;2023-11-22T10:28:15;5.07;;;3.60;;
22144;SDS011;11238;48.730;11.566;2023-11-22T10:30:45;5.13;;;3.40;;
22144;SDS011;11238;48.730;11.566;2023-11-22T10:33:11;4.63;;;3.42;;
22144;SDS011;11238;48.730;11.566;2023-11-22T10:35:51;5.35;;;3.90;;
22144;SDS011;11238;48.730;11.566;2023-11-22T10:38:18;5.25;;;3.65;;
22144;SDS011;11238;48.730;11.566;2023-11-22T10:40:44;5.10;;;3.80;;
22144;SDS011;11238;48.730;11.566;2023-11-22T10:43:12;6.15;;;3.95;;
22144;SDS011;11238;48.730;11.566;2023-11-22T10:45:38;5.57;;;3.85;;
22144;SDS011;11238;48.730;11.566;2023-11-22T10:48:08;5.50;;;3.65;;
22144;SDS011;11238;48.730;11.566;2023-11-22T10:50:34;6.65;;;4.28;;
22144;SDS011;11238;48.730;11.566;2023-11-22T10:53:04;8.32;;;4.55;;
22144;SDS011;11238;48.730;11.566;2023-11-22T10:55:35;4.60;;;3.42;;
22144;SDS011;11238;48.730;11.566;2023-11-22T10:58:06;4.95;;;3.53;;
22144;SDS011;11238;48.730;11.566;2023-11-22T11:00:34;5.82;;;3.80;;
22144;SDS011;11238;48.730;11.566;2023-11-22T11:03:07;5.38;;;3.78;;
22144;SDS011;11238;48.730;11.566;2023-11-22T11:05:38;8.05;;;3.75;;
22144;SDS011;11238;48.730;11.566;2023-11-22T11:08:08;7.15;;;3.83;;
22144;SDS011;11238;48.730;11.566;2023-11-22T11:10:43;5.47;;;4.00;;
22144;SDS011;11238;48.730;11.566;2023-11-22T11:13:12;6.75;;;3.97;;
22144;SDS011;11238;48.730;11.566;2023-11-22T11:15:39;5.88;;;4.10;;
22144;SDS011;11238;48.730;11.566;2023-11-22T11:18:07;6.57;;;4.13;;
22144;SDS011;11238;48.730;11.566;2023-11-22T11:20:56;6.20;;;4.10;;
22144;SDS011;11238;48.730;11.566;2023-11-22T11:23:25;6.25;;;3.88;;
22144;SDS011;11238;48.730;11.566;2023-11-22T11:25:52;7.47;;;4.40;;
22144;SDS011;11238;48.730;11.566;2023-11-22T11:28:23;4.78;;;3.60;;
22144;SDS011;11238;48.730;11.566;2023-11-22T11:30:53;6.72;;;3.97;;
22144;SDS011;11238;48.730;11.566;2023-11-22T11:33:27;6.70;;;4.18;;
22144;SDS011;11238;48.730;11.566;2023-11-22T11:36:00;7.15;;;4.68;;
22144;SDS011;11238;48.730;11.566;2023-11-22T11:38:30;6.68;;;4.60;;
22144;SDS011;11238;48.730;11.566;2023-11-22T11:41:28;11.73;;;6.07;;
22144;SDS011;11238;48.730;11.566;2023-11-22T11:43:58;11.05;;;4.95;;
22144;SDS011;11238;48.730;11.566;2023-11-22T11:46:26;7.32;;;4.75;;
22144;SDS011;11238;48.730;11.566;2023-11-22T11:48:54;6.38;;;4.60;;
22144;SDS011;11238;48.730;11.566;2023-11-22T11:51:23;8.65;;;5.15;;
22144;SDS011;11238;48.730;11.566;2023-11-22T11:53:53;7.95;;;5.07;;
22144;SDS011;11238;48.730;11.566;2023-11-22T11:56:19;7.00;;;4.68;;
22144;SDS011;11238;48.730;11.566;2023-11-22T11:58:48;7.63;;;4.85;;
22144;SDS011;11238;48.730;11.566;2023-11-22T12:01:15;6.25;;;4.30;;
22144;SDS011;11238;48.730;11.566;2023-11-22T12:03:45;9.32;;;4.88;;
22144;SDS011;11238;48.730;11.566;2023-11-22T12:06:15;7.85;;;4.57;;
22144;SDS011;11238;48.730;11.566;2023-11-22T12:08:45;6.07;;;4.20;;
22144;SDS011;11238;48.730;11.566;2023-11-22T12:11:13;7.80;;;4.72;;
22144;SDS011;11238;48.730;11.566;2023-11-22T12:13:42;9.05;;;4.72;;
22144;SDS011;11238;48.730;11.566;2023-11-22T12:16:13;6.72;;;4.70;;
22144;SDS011;11238;48.730;11.566;2023-11-22T12:18:49;6.97;;;4.25;;
22144;SDS011;11238;48.730;11.566;2023-11-22T12:21:17;7.25;;;4.80;;
22144;SDS011;11238;48.730;11.566;2023-11-22T12:23:44;8.30;;;4.75;;
22144;SDS011;11238;48.730;11.566;2023-11-22T12:26:14;7.68;;;4.90;;
22144;SDS011;11238;48.730;11.566;2023-11-22T12:28:40;7.28;;;4.63;;
22144;SDS011;11238;48.730;11.566;2023-11-22T12:31:08;7.05;;;4.18;;
22144;SDS011;11238;48.730;11.566;2023-11-22T12:33:35;6.93;;;4.43;;
22144;SDS011;11238;48.730;11.566;2023-11-22T12:36:02;5.95;;;4.32;;
22144;SDS011;11238;48.730;11.566;2023-11-22T12:38:30;9.93;;;5.55;;
22144;SDS011;11238;48.730;11.566;2023-11-22T12:40:58;15.88;;;7.70;;
22144;SDS011;11238;48.730;11.566;2023-11-22T12:43:26;18.80;;;8.70;;
22144;SDS011;11238;48.730;11.566;2023-11-22T12:45:58;16.42;;;6.75;;
22144;SDS011;11238;48.730;11.566;2023-11-22T12:48:29;7.28;;;4.47;;
22144;SDS011;11238;48.730;11.566;2023-11-22T12:50:56;7.45;;;4.63;;
22144;SDS011;11238;48.730;11.566;2023-11-22T12:53:23;7.20;;;4.30;;
22144;SDS011;11238;48.730;11.566;2023-11-22T12:55:52;9.38;;;5.00;;
22144;SDS011;11238;48.730;11.566;2023-11-22T12:58:19;7.57;;;5.32;;
22144;SDS011;11238;48.730;11.566;2023-11-22T13:00:47;10.95;;;6.20;;
22144;SDS011;11238;48.730;11.566;2023-11-22T13:03:17;12.15;;;5.45;;
22144;SDS011;11238;48.730;11.566;2023-11-22T13:05:43;7.70;;;5.15;;
22144;SDS011;11238;48.730;11.566;2023-11-22T13:08:11;8.93;;;5.32;;
22144;SDS011;11238;48.730;11.566;2023-11-22T13:13:21;8.93;;;5.13;;
22144;SDS011;11238;48.730;11.566;2023-11-22T13:15:47;8.02;;;4.93;;
22144;SDS011;11238;48.730;11.566;2023-11-22T13:18:17;10.48;;;5.20;;
22144;SDS011;11238;48.730;11.566;2023-11-22T13:20:43;7.32;;;5.07;;
22144;SDS011;11238;48.730;11.566;2023-11-22T13:23:11;8.10;;;4.72;;
22144;SDS011;11238;48.730;11.566;2023-11-22T13:25:38;7.10;;;4.93;;
22144;SDS011;11238;48.730;11.566;2023-11-22T13:28:06;7.18;;;4.47;;
22144;SDS011;11238;48.730;11.566;2023-11-22T13:30:35;5.95;;;4.00;;
22144;SDS011;11238;48.730;11.566;2023-11-22T13:33:00;7.25;;;4.25;;
22144;SDS011;11238;48.730;11.566;2023-11-22T13:35:29;5.97;;;4.00;;
22144;SDS011;11238;48.730;11.566;2023-11-22T13:37:57;8.32;;;4.40;;
22144;SDS011;11238;48.730;11.566;2023-11-22T13:40:24;6.15;;;4.30;;
22144;SDS011;11238;48.730;11.566;2023-11-22T13:42:54;11.32;;;6.82;;
22144;SDS011;11238;48.730;11.566;2023-11-22T13:45:20;22.20;;;10.07;;
22144;SDS011;11238;48.730;11.566;2023-11-22T13:47:48;15.00;;;8.38;;
22144;SDS011;11238;48.730;11.566;2023-11-22T13:50:16;8.15;;;5.35;;
22144;SDS011;11238;48.730;11.566;2023-11-22T13:52:51;8.35;;;5.15;;
22144;SDS011;11238;48.730;11.566;2023-11-22T13:55:20;8.40;;;5.20;;
22144;SDS011;11238;48.730;11.566;2023-11-22T13:57:51;9.27;;;5.70;;
22144;SDS011;11238;48.730;11.566;2023-11-22T14:00:18;8.23;;;5.10;;
22144;SDS011;11238;48.730;11.566;2023-11-22T14:02:45;9.30;;;5.30;;
22144;SDS011;11238;48.730;11.566;2023-11-22T14:05:11;6.85;;;4.88;;
22144;SDS011;11238;48.730;11.566;2023-11-22T14:07:37;8.27;;;5.03;;
22144;SDS011;11238;48.730;11.566;2023-11-22T14:10:04;6.90;;;4.75;;
22144;SDS011;11238;48.730;11.566;2023-11-22T14:12:34;7.57;;;4.30;;
22144;SDS011;11238;48.730;11.566;2023-11-22T14:15:01;10.38;;;5.82;;
22144;SDS011;11238;48.730;11.566;2023-11-22T14:17:29;10.65;;;6.20;;
22144;SDS011;11238;48.730;11.566;2023-11-22T14:19:56;10.55;;;4.80;;
22144;SDS011;11238;48.730;11.566;2023-11-22T14:22:22;7.53;;;4.85;;
22144;SDS011;11238;48.730;11.566;2023-11-22T14:24:49;7.38;;;5.00;;
22144;SDS011;11238;48.730;11.566;2023-11-22T14:27:18;7.25;;;4.70;;
22144;SDS011;11238;48.730;11.566;2023-11-22T14:29:45;5.85;;;4.15;;
22144;SDS011;11238;48.730;11.566;2023-11-22T14:32:14;8.35;;;4.40;;
22144;SDS011;11238;48.730;11.566;2023-11-22T14:34:45;7.35;;;4.85;;
22144;SDS011;11238;48.730;11.566;2023-11-22T14:37:11;7.97;;;4.60;;
22144;SDS011;11238;48.730;11.566;2023-11-22T14:39:38;7.07;;;4.47;;
22144;SDS011;11238;48.730;11.566;2023-11-22T14:42:26;8.48;;;4.93;;
22144;SDS011;11238;48.730;11.566;2023-11-22T14:44:52;8.00;;;4.70;;